createdAt,value
2024-03-12T00:00:57.554Z,9.37
2024-03-12T00:03:24.002Z,9.33
2024-03-12T00:05:50.440Z,9.33
2024-03-12T00:08:16.945Z,9.33
2024-03-12T00:10:44.391Z,9.29
2024-03-12T00:13:11.078Z,9.26
2024-03-12T00:15:37.778Z,9.24
2024-03-12T00:18:06.955Z,9.27
2024-03-12T00:20:36.244Z,9.29
2024-03-12T00:23:03.136Z,9.30
2024-03-12T00:25:31.685Z,9.31
2024-03-12T00:27:58.161Z,9.29
2024-03-12T00:30:29.282Z,9.24
2024-03-12T00:32:58.056Z,9.22
2024-03-12T00:35:25.713Z,9.22
2024-03-12T00:37:52.549Z,9.22
2024-03-12T00:40:21.184Z,9.25
2024-03-12T00:42:48.207Z,9.26
2024-03-12T00:45:14.750Z,9.23
2024-03-12T00:47:44.161Z,9.23
2024-03-12T00:50:12.452Z,9.25
2024-03-12T00:52:39.290Z,9.24
2024-03-12T00:55:06.060Z,9.21
2024-03-12T00:57:35.306Z,9.22
2024-03-12T01:00:02.689Z,9.22
2024-03-12T01:02:31.514Z,9.19
2024-03-12T01:04:58.842Z,9.21
2024-03-12T01:07:26.515Z,9.23
2024-03-12T01:09:52.931Z,9.22
2024-03-12T01:12:19.483Z,9.22
2024-03-12T01:14:46.046Z,9.21
2024-03-12T01:17:12.610Z,9.23
2024-03-12T01:19:42.494Z,9.19
2024-03-12T01:22:11.804Z,9.12
2024-03-12T01:24:41.723Z,9.10
2024-03-12T01:27:08.291Z,9.04
2024-03-12T01:29:35.115Z,9.04
2024-03-12T01:32:01.575Z,9.03
2024-03-12T01:34:28.249Z,9.04
2024-03-12T01:36:54.917Z,9.01
2024-03-12T01:39:27.428Z,9.02
2024-03-12T01:41:53.923Z,9.03
2024-03-12T01:44:20.769Z,9.05
2024-03-12T01:46:47.484Z,9.06
2024-03-12T01:49:14.345Z,9.05
2024-03-12T01:51:40.814Z,9.02
2024-03-12T01:54:07.400Z,9.01
2024-03-12T01:56:33.951Z,9.00
2024-03-12T01:59:00.391Z,8.99
2024-03-12T02:01:26.965Z,9.00
2024-03-12T02:03:53.626Z,9.04
2024-03-12T02:06:23.508Z,9.03
2024-03-12T02:08:50.754Z,9.03
2024-03-12T02:11:17.484Z,9.01
2024-03-12T02:13:44.366Z,9.06
2024-03-12T02:16:11.447Z,9.07
2024-03-12T02:18:38.189Z,9.07
2024-03-12T02:21:04.943Z,9.06
2024-03-12T02:23:37.793Z,9.06
2024-03-12T02:26:04.757Z,9.07
2024-03-12T02:28:31.209Z,9.07
2024-03-12T02:30:57.717Z,9.07
2024-03-12T02:33:24.247Z,9.07
2024-03-12T02:35:50.686Z,9.07
2024-03-12T02:38:17.319Z,9.05
2024-03-12T02:40:43.705Z,9.01
2024-03-12T02:43:10.213Z,8.96
2024-03-12T02:45:37.328Z,8.92
2024-03-12T02:48:05.673Z,8.90
2024-03-12T02:50:32.490Z,8.89
2024-03-12T02:52:59.470Z,8.89
2024-03-12T02:55:25.866Z,8.88
2024-03-12T02:57:52.308Z,8.88
2024-03-12T03:00:18.756Z,8.88
2024-03-12T03:02:45.691Z,8.87
2024-03-12T03:05:13.190Z,8.87
2024-03-12T03:07:41.342Z,8.87
2024-03-12T03:10:07.993Z,8.87
2024-03-12T03:12:34.674Z,8.84
2024-03-12T03:15:01.150Z,8.83
2024-03-12T03:17:27.566Z,8.83
2024-03-12T03:19:53.998Z,8.84
2024-03-12T03:22:20.380Z,8.83
2024-03-12T03:24:46.869Z,8.79
2024-03-12T03:27:13.296Z,8.80
2024-03-12T03:29:39.666Z,8.84
2024-03-12T03:32:07.936Z,8.85
2024-03-12T03:34:34.545Z,8.85
2024-03-12T03:37:01.111Z,8.82
2024-03-12T03:39:27.761Z,8.84
2024-03-12T03:41:56.173Z,8.82
2024-03-12T03:44:23.530Z,8.83
2024-03-12T03:46:49.952Z,8.84
2024-03-12T03:49:16.411Z,8.88
2024-03-12T03:51:42.813Z,8.88
2024-03-12T03:54:10.423Z,8.88
2024-03-12T03:56:36.861Z,8.83
2024-03-12T03:59:05.027Z,8.79
2024-03-12T04:01:31.507Z,8.78
2024-03-12T04:03:58.254Z,8.78
2024-03-12T04:06:24.768Z,8.78
2024-03-12T04:08:52.245Z,8.77
2024-03-12T04:11:21.943Z,8.77
2024-03-12T04:13:48.813Z,8.77
2024-03-12T04:16:16.158Z,8.76
2024-03-12T04:18:46.010Z,8.78
2024-03-12T04:21:15.563Z,8.78
2024-03-12T04:23:43.715Z,8.82
2024-03-12T04:26:10.128Z,8.82
2024-03-12T04:28:38.697Z,8.81
2024-03-12T04:31:08.443Z,8.78
2024-03-12T04:33:37.945Z,8.76
2024-03-12T04:36:07.253Z,8.75
2024-03-12T04:38:34.185Z,8.75
2024-03-12T04:41:02.018Z,8.76
2024-03-12T04:43:28.534Z,8.74
2024-03-12T04:45:54.991Z,8.75
2024-03-12T04:48:22.561Z,8.75
2024-03-12T04:50:49.330Z,8.78
2024-03-12T04:53:18.319Z,8.79
2024-03-12T04:55:46.627Z,8.80
2024-03-12T04:58:13.058Z,8.82
2024-03-12T05:00:39.530Z,8.80
2024-03-12T05:03:05.977Z,8.78
2024-03-12T05:05:32.349Z,8.78
2024-03-12T05:07:58.869Z,8.80
2024-03-12T05:10:26.396Z,8.79
2024-03-12T05:12:53.253Z,8.79
2024-03-12T05:15:21.097Z,8.77
2024-03-12T05:17:49.621Z,8.75
2024-03-12T05:20:19.257Z,8.72
2024-03-12T05:22:46.257Z,8.73
2024-03-12T05:25:23.898Z,8.72
2024-03-12T05:27:50.639Z,8.71
2024-03-12T05:30:17.206Z,8.72
2024-03-12T05:32:47.439Z,8.70
2024-03-12T05:35:24.157Z,8.68
2024-03-12T05:38:04.322Z,8.65
2024-03-12T05:40:41.581Z,8.60
2024-03-12T05:43:27.239Z,8.59
2024-03-12T05:46:12.326Z,8.56
2024-03-12T05:48:39.481Z,8.56
2024-03-12T05:51:06.269Z,8.72
2024-03-12T05:53:33.472Z,9.00
2024-03-12T05:55:59.967Z,9.21
2024-03-12T05:58:26.576Z,9.32
2024-03-12T06:00:53.089Z,9.35
2024-03-12T06:03:21.943Z,9.35
2024-03-12T06:05:49.213Z,9.25
2024-03-12T06:08:15.914Z,9.14
2024-03-12T06:10:42.342Z,9.29
2024-03-12T06:13:09.050Z,9.34
2024-03-12T06:15:35.511Z,9.43
2024-03-12T06:18:03.782Z,9.56
2024-03-12T06:20:30.285Z,9.54
2024-03-12T06:22:57.025Z,9.49
2024-03-12T06:25:23.878Z,9.31
2024-03-12T06:27:50.655Z,9.17
2024-03-12T06:30:19.512Z,9.06
2024-03-12T06:32:46.464Z,8.99
2024-03-12T06:35:13.170Z,8.92
2024-03-12T06:37:39.593Z,8.86
2024-03-12T06:40:06.337Z,8.84
2024-03-12T06:42:32.794Z,8.82
2024-03-12T06:45:01.603Z,8.81
2024-03-12T06:47:29.619Z,8.80
2024-03-12T06:49:56.058Z,8.76
2024-03-12T06:52:27.756Z,8.71
2024-03-12T06:54:54.456Z,8.72
2024-03-12T06:57:23.345Z,8.69
2024-03-12T06:59:50.034Z,8.66
2024-03-12T07:02:19.421Z,8.68
2024-03-12T07:04:48.437Z,8.71
2024-03-12T07:07:19.679Z,8.72
2024-03-12T07:09:46.671Z,8.71
2024-03-12T07:12:17.305Z,8.70
2024-03-12T07:14:46.339Z,8.68
2024-03-12T07:17:13.733Z,8.68
2024-03-12T07:19:40.150Z,8.69
2024-03-12T07:22:10.189Z,8.71
2024-03-12T07:24:36.966Z,8.74
2024-03-12T07:27:05.166Z,8.75
2024-03-12T07:29:34.848Z,8.74
2024-03-12T07:32:04.395Z,8.79
2024-03-12T07:34:33.733Z,8.83
2024-03-12T07:37:00.837Z,8.87
2024-03-12T07:39:38.064Z,8.94
2024-03-12T07:42:12.285Z,8.98
2024-03-12T07:44:40.790Z,9.01
2024-03-12T07:47:07.215Z,9.04
2024-03-12T07:49:37.468Z,9.08
2024-03-12T07:52:06.377Z,9.12
2024-03-12T07:54:33.264Z,9.19
2024-03-12T07:57:00.556Z,9.24
2024-03-12T07:59:29.687Z,9.35
2024-03-12T08:01:58.523Z,9.40
2024-03-12T08:04:28.118Z,9.44
2024-03-12T08:06:54.696Z,9.56
2024-03-12T08:09:21.247Z,9.68
2024-03-12T08:11:48.285Z,9.76
2024-03-12T08:14:15.387Z,9.80
2024-03-12T08:16:42.732Z,9.84
2024-03-12T08:19:11.452Z,9.87
2024-03-12T08:21:39.145Z,9.90
2024-03-12T08:24:06.276Z,9.89
2024-03-12T08:26:32.796Z,9.96
2024-03-12T08:28:59.256Z,10.03
2024-03-12T08:31:32.792Z,10.04
2024-03-12T08:34:04.323Z,10.06
2024-03-12T08:36:30.847Z,10.04
2024-03-12T08:39:00.098Z,10.04
2024-03-12T08:41:26.969Z,9.98
2024-03-12T08:43:53.404Z,9.91
2024-03-12T08:46:20.874Z,9.83
2024-03-12T08:48:47.443Z,9.77
2024-03-12T08:51:16.790Z,9.72
2024-03-12T08:53:43.225Z,9.72
2024-03-12T08:56:10.495Z,9.75
2024-03-12T08:58:37.228Z,9.76
2024-03-12T09:01:04.850Z,9.78
2024-03-12T09:03:31.544Z,9.82
2024-03-12T09:05:59.042Z,9.86
2024-03-12T09:08:25.623Z,9.90
2024-03-12T09:10:52.281Z,9.88
2024-03-12T09:13:20.580Z,9.89
2024-03-12T09:15:49.583Z,9.86
2024-03-12T09:18:23.591Z,9.87
2024-03-12T09:20:52.970Z,9.92
2024-03-12T09:23:20.127Z,9.93
2024-03-12T09:25:46.713Z,9.90
2024-03-12T09:28:15.952Z,9.88
2024-03-12T09:30:42.737Z,9.90
2024-03-12T09:33:09.202Z,9.89
2024-03-12T09:35:39.367Z,9.90
2024-03-12T09:38:10.455Z,9.92
2024-03-12T09:40:37.783Z,9.95
2024-03-12T09:43:05.014Z,9.98
2024-03-12T09:45:32.056Z,10.02
2024-03-12T09:47:58.557Z,10.10
2024-03-12T09:50:26.262Z,10.21
2024-03-12T09:52:53.377Z,10.28
2024-03-12T09:55:21.069Z,10.33
2024-03-12T09:57:47.918Z,10.34
2024-03-12T10:00:23.808Z,10.32
2024-03-12T10:02:51.046Z,10.30
2024-03-12T10:05:22.796Z,10.33
2024-03-12T10:08:08.728Z,10.33
2024-03-12T10:10:39.685Z,10.32
2024-03-12T10:13:09.715Z,10.34
2024-03-12T10:15:38.242Z,10.41
2024-03-12T10:18:08.203Z,10.49
2024-03-12T10:20:46.195Z,10.50
2024-03-12T10:23:14.870Z,10.48
2024-03-12T10:25:43.086Z,10.47
2024-03-12T10:28:09.501Z,10.47
2024-03-12T10:30:38.905Z,10.48
2024-03-12T10:33:13.318Z,10.55
2024-03-12T10:35:42.505Z,10.65
2024-03-12T10:38:12.311Z,10.81
2024-03-12T10:40:39.870Z,10.93
2024-03-12T10:43:09.342Z,10.94
2024-03-12T10:45:36.160Z,10.91
2024-03-12T10:48:04.563Z,10.96
2024-03-12T10:50:31.121Z,11.04
2024-03-12T10:52:58.302Z,10.95
2024-03-12T10:55:34.254Z,10.87
2024-03-12T10:58:03.445Z,10.82
2024-03-12T11:00:31.435Z,10.81
2024-03-12T11:02:57.999Z,10.86
2024-03-12T11:05:28.372Z,10.94
2024-03-12T11:07:59.294Z,11.04
2024-03-12T11:10:28.050Z,11.11
2024-03-12T11:12:55.379Z,11.18
2024-03-12T11:15:24.103Z,11.18
2024-03-12T11:17:51.371Z,11.26
2024-03-12T11:20:27.488Z,11.28
2024-03-12T11:22:57.566Z,11.28
2024-03-12T11:25:49.844Z,11.22
2024-03-12T11:28:21.825Z,11.17
2024-03-12T11:30:50.041Z,11.13
2024-03-12T11:33:35.307Z,11.15
2024-03-12T11:36:04.521Z,11.16
2024-03-12T11:38:31.118Z,11.15
2024-03-12T11:40:57.914Z,11.13
2024-03-12T11:43:41.433Z,11.09
2024-03-12T11:46:08.943Z,11.11
2024-03-12T11:48:36.347Z,11.10
2024-03-12T11:51:05.295Z,11.06
2024-03-12T11:53:36.736Z,10.97
2024-03-12T11:56:12.496Z,10.86
2024-03-12T11:58:42.272Z,10.78
2024-03-12T12:01:10.499Z,10.76
2024-03-12T12:03:39.780Z,10.71
2024-03-12T12:06:07.421Z,10.65
2024-03-12T12:08:39.569Z,10.61
2024-03-12T12:11:12.642Z,10.62
2024-03-12T12:13:42.329Z,10.63
2024-03-12T12:16:12.034Z,10.65
2024-03-12T12:18:39.980Z,10.65
2024-03-12T12:21:13.480Z,10.62
2024-03-12T12:23:40.158Z,10.64
2024-03-12T12:26:09.557Z,10.54
2024-03-12T12:28:35.977Z,10.49
2024-03-12T12:31:06.197Z,10.45
2024-03-12T12:33:34.616Z,10.43
2024-03-12T12:36:05.704Z,10.45
2024-03-12T12:38:33.348Z,10.56
2024-03-12T12:41:00.600Z,10.72
2024-03-12T12:43:27.628Z,10.88
2024-03-12T12:45:58.429Z,11.16
2024-03-12T12:48:24.875Z,11.47
2024-03-12T12:50:55.725Z,11.62
2024-03-12T12:53:22.504Z,11.73
2024-03-12T12:55:58.777Z,11.78
2024-03-12T12:58:35.077Z,11.85
2024-03-12T13:01:07.277Z,11.85
2024-03-12T13:03:35.386Z,11.73
2024-03-12T13:06:22.331Z,11.54
2024-03-12T13:08:53.542Z,11.42
2024-03-12T13:11:21.566Z,11.41
2024-03-12T13:13:54.600Z,11.40
2024-03-12T13:16:24.739Z,11.37
2024-03-12T13:18:52.364Z,11.35
2024-03-12T13:21:23.074Z,11.32
2024-03-12T13:23:50.871Z,11.30
2024-03-12T13:26:18.601Z,11.29
2024-03-12T13:28:46.506Z,11.32
2024-03-12T13:31:13.344Z,11.39
2024-03-12T13:33:40.160Z,11.44
2024-03-12T13:36:07.032Z,11.47
2024-03-12T13:38:37.254Z,11.49
2024-03-12T13:41:03.784Z,11.46
2024-03-12T13:43:30.521Z,11.45
2024-03-12T13:45:57.556Z,11.50
2024-03-12T13:48:25.179Z,11.46
2024-03-12T13:50:56.746Z,11.45
2024-03-12T13:53:23.128Z,11.47
2024-03-12T13:55:49.537Z,11.59
2024-03-12T13:58:16.035Z,11.74
2024-03-12T14:00:42.690Z,11.86
2024-03-12T14:03:11.509Z,11.98
2024-03-12T14:05:38.159Z,12.07
2024-03-12T14:08:04.723Z,12.11
2024-03-12T14:10:31.239Z,12.08
2024-03-12T14:12:57.732Z,12.13
2024-03-12T14:15:24.235Z,12.19
2024-03-12T14:17:52.929Z,12.24
2024-03-12T14:20:19.353Z,12.27
2024-03-12T14:22:45.721Z,12.31
2024-03-12T14:25:12.720Z,12.24
2024-03-12T14:27:42.198Z,12.06
2024-03-12T14:30:14.366Z,11.90
2024-03-12T14:32:41.494Z,11.88
2024-03-12T14:35:08.170Z,11.82
2024-03-12T14:37:34.659Z,11.77
2024-03-12T14:40:01.342Z,11.72
2024-03-12T14:42:31.051Z,11.69
2024-03-12T14:44:57.454Z,11.62
2024-03-12T14:47:23.947Z,11.50
2024-03-12T14:49:50.474Z,11.44
2024-03-12T14:52:17.024Z,11.40
2024-03-12T14:54:43.745Z,11.27
2024-03-12T14:57:10.190Z,11.15
2024-03-12T14:59:36.661Z,11.08
2024-03-12T15:02:05.916Z,11.10
2024-03-12T15:04:33.649Z,11.16
2024-03-12T15:07:00.135Z,11.20
2024-03-12T15:09:30.297Z,11.23
2024-03-12T15:11:58.578Z,11.28
2024-03-12T15:14:25.105Z,11.32
2024-03-12T15:16:51.956Z,11.27
2024-03-12T15:19:21.266Z,11.19
2024-03-12T15:21:47.717Z,11.18
2024-03-12T15:24:14.140Z,11.18
2024-03-12T15:26:40.559Z,11.21
2024-03-12T15:29:08.991Z,11.18
2024-03-12T15:31:35.386Z,11.18
2024-03-12T15:34:01.809Z,11.17
2024-03-12T15:36:28.324Z,11.14
2024-03-12T15:38:54.708Z,11.10
2024-03-12T15:41:21.081Z,11.08
2024-03-12T15:43:47.554Z,11.03
2024-03-12T15:46:17.682Z,10.96
2024-03-12T15:48:44.119Z,10.91
2024-03-12T15:51:10.642Z,10.87
2024-03-12T15:53:37.071Z,10.88
2024-03-12T15:56:03.522Z,10.86
2024-03-12T15:58:31.927Z,10.88
2024-03-12T16:00:58.729Z,10.86
2024-03-12T16:03:25.240Z,10.79
2024-03-12T16:05:51.688Z,10.78
2024-03-12T16:08:18.167Z,10.74
2024-03-12T16:10:44.697Z,10.70
2024-03-12T16:13:11.462Z,10.68
2024-03-12T16:15:38.514Z,10.63
2024-03-12T16:18:05.195Z,10.60
2024-03-12T16:20:31.583Z,10.55
2024-03-12T16:22:58.037Z,10.57
2024-03-12T16:25:24.560Z,10.57
2024-03-12T16:27:51.073Z,10.52
2024-03-12T16:30:17.517Z,10.42
2024-03-12T16:32:44.328Z,10.38
2024-03-12T16:35:10.852Z,10.29
2024-03-12T16:37:40.156Z,10.21
2024-03-12T16:40:08.471Z,10.12
2024-03-12T16:42:35.900Z,10.09
2024-03-12T16:45:06.427Z,10.05
2024-03-12T16:47:33.152Z,9.99
2024-03-12T16:50:05.698Z,9.98
2024-03-12T16:52:32.134Z,9.96
2024-03-12T16:54:58.715Z,9.94
2024-03-12T16:57:25.307Z,9.95
2024-03-12T16:59:56.978Z,9.94
2024-03-12T17:02:27.612Z,9.92
2024-03-12T17:04:57.754Z,9.90
2024-03-12T17:07:25.017Z,9.87
2024-03-12T17:09:52.174Z,9.83
2024-03-12T17:12:20.793Z,9.84
2024-03-12T17:14:48.627Z,9.81
2024-03-12T17:17:20.482Z,9.79
2024-03-12T17:19:46.930Z,9.75
2024-03-12T17:22:13.561Z,9.68
2024-03-12T17:24:40.529Z,9.65
2024-03-12T17:27:11.373Z,9.62
2024-03-12T17:29:38.323Z,9.58
2024-03-12T17:32:06.229Z,9.53
2024-03-12T17:34:32.814Z,9.51
2024-03-12T17:37:00.507Z,9.47
2024-03-12T17:39:28.029Z,9.47
2024-03-12T17:41:54.583Z,9.49
2024-03-12T17:44:21.039Z,9.51
2024-03-12T17:46:48.468Z,9.53
2024-03-12T17:49:21.448Z,9.49
2024-03-12T17:51:48.175Z,9.48
2024-03-12T17:54:17.851Z,9.48
2024-03-12T17:56:46.859Z,9.47
2024-03-12T17:59:15.906Z,9.44
2024-03-12T18:01:43.599Z,9.41
2024-03-12T18:04:11.099Z,9.40
2024-03-12T18:06:40.281Z,9.39
2024-03-12T18:09:07.181Z,9.38
2024-03-12T18:11:33.764Z,9.39
2024-03-12T18:14:00.359Z,9.36
2024-03-12T18:16:26.851Z,9.35
2024-03-12T18:18:53.472Z,9.38
2024-03-12T18:21:20.849Z,9.37
2024-03-12T18:23:47.305Z,9.38
2024-03-12T18:26:13.676Z,9.40
2024-03-12T18:28:40.118Z,9.39
2024-03-12T18:31:09.109Z,9.39
2024-03-12T18:33:36.092Z,9.36
2024-03-12T18:36:02.645Z,9.35
2024-03-12T18:38:29.048Z,9.35
2024-03-12T18:40:55.436Z,9.36
2024-03-12T18:43:22.300Z,9.37
2024-03-12T18:45:50.094Z,9.39
2024-03-12T18:48:16.909Z,9.40
2024-03-12T18:50:43.414Z,9.42
2024-03-12T18:53:09.936Z,9.42
2024-03-12T18:55:36.524Z,9.42
2024-03-12T18:58:03.120Z,9.43
2024-03-12T19:00:30.139Z,9.44
2024-03-12T19:03:02.617Z,9.44
2024-03-12T19:05:29.066Z,9.42
2024-03-12T19:07:56.066Z,9.42
2024-03-12T19:10:24.951Z,9.43
2024-03-12T19:12:51.919Z,9.43
2024-03-12T19:15:22.732Z,9.43
2024-03-12T19:17:52.931Z,9.45
2024-03-12T19:20:19.971Z,9.45
2024-03-12T19:22:47.560Z,9.47
2024-03-12T19:25:16.568Z,9.49
2024-03-12T19:27:47.047Z,9.53
2024-03-12T19:30:14.926Z,9.57
2024-03-12T19:32:44.823Z,9.55
2024-03-12T19:35:13.724Z,9.53
2024-03-12T19:37:40.726Z,9.53
2024-03-12T19:40:12.437Z,9.54
2024-03-12T19:42:44.570Z,9.55
2024-03-12T19:45:18.826Z,9.58
2024-03-12T19:47:49.868Z,9.58
2024-03-12T19:50:18.462Z,9.55
2024-03-12T19:52:47.578Z,9.54
2024-03-12T19:55:19.333Z,9.57
2024-03-12T19:58:00.236Z,9.57
2024-03-12T20:00:30.698Z,9.59
2024-03-12T20:02:57.991Z,9.61
2024-03-12T20:05:25.876Z,9.67
2024-03-12T20:07:52.462Z,9.66
2024-03-12T20:10:19.196Z,9.69
2024-03-12T20:12:46.273Z,9.73
2024-03-12T20:15:13.218Z,9.74
2024-03-12T20:17:39.994Z,9.74
2024-03-12T20:20:09.705Z,9.74
2024-03-12T20:22:36.554Z,9.79
2024-03-12T20:25:03.949Z,9.80
2024-03-12T20:27:30.367Z,9.83
2024-03-12T20:29:56.728Z,9.86
2024-03-12T20:32:23.208Z,9.85
2024-03-12T20:34:49.752Z,9.87
2024-03-12T20:37:20.339Z,9.87
2024-03-12T20:39:47.161Z,9.91
2024-03-12T20:42:13.639Z,9.90
2024-03-12T20:44:40.617Z,9.91
2024-03-12T20:47:07.531Z,9.93
2024-03-12T20:49:37.321Z,9.94
2024-03-12T20:52:06.100Z,9.97
2024-03-12T20:54:32.778Z,10.00
2024-03-12T20:56:59.271Z,10.02
2024-03-12T20:59:25.662Z,10.06
2024-03-12T21:01:52.578Z,10.08
2024-03-12T21:04:19.113Z,10.10
2024-03-12T21:06:45.703Z,10.12
2024-03-12T21:09:27.334Z,10.15
2024-03-12T21:14:12.781Z,10.44
2024-03-12T21:16:39.313Z,10.68
2024-03-12T21:19:05.863Z,10.85
2024-03-12T21:21:32.372Z,10.98
2024-03-12T21:23:58.865Z,11.10
2024-03-12T21:26:25.770Z,11.21
2024-03-12T21:28:52.823Z,11.28
2024-03-12T21:31:19.327Z,11.33
2024-03-12T21:33:45.984Z,11.40
2024-03-12T21:36:16.717Z,11.42
2024-03-12T21:38:43.853Z,11.46
2024-03-12T21:41:12.449Z,11.46
2024-03-12T21:43:38.935Z,11.44
2024-03-12T21:46:06.223Z,11.47
2024-03-12T21:48:33.085Z,11.47
2024-03-12T21:50:59.760Z,11.46
2024-03-12T21:53:29.192Z,11.49
2024-03-12T21:55:57.459Z,11.54
2024-03-12T21:58:24.387Z,11.56
2024-03-12T22:00:53.773Z,11.57
2024-03-12T22:03:20.362Z,11.58
2024-03-12T22:05:46.831Z,11.62
2024-03-12T22:08:14.324Z,11.61
2024-03-12T22:10:40.802Z,11.66
2024-03-12T22:13:08.218Z,11.65
2024-03-12T22:15:37.349Z,11.65
2024-03-12T22:18:04.280Z,11.68
2024-03-12T22:20:30.865Z,11.69
2024-03-12T22:22:57.392Z,11.71
2024-03-12T22:25:23.993Z,11.74
2024-03-12T22:27:50.880Z,11.75
2024-03-12T22:30:19.083Z,11.74
2024-03-12T22:32:45.990Z,11.74
2024-03-12T22:35:13.037Z,11.77
2024-03-12T22:37:39.835Z,11.78
2024-03-12T22:40:06.996Z,11.81
2024-03-12T22:42:34.111Z,11.84
2024-03-12T22:45:02.733Z,11.87
2024-03-12T22:47:31.361Z,11.89
2024-03-12T22:49:58.256Z,11.92
2024-03-12T22:52:26.085Z,11.95
2024-03-12T22:54:53.090Z,11.96
2024-03-12T22:57:19.872Z,11.99
2024-03-12T22:59:48.530Z,12.04
2024-03-12T23:02:19.472Z,12.03
2024-03-12T23:04:48.425Z,12.04
2024-03-12T23:07:15.862Z,12.08
2024-03-12T23:09:42.953Z,12.11
2024-03-12T23:12:09.517Z,12.11
2024-03-12T23:14:36.147Z,12.11
2024-03-12T23:17:02.672Z,12.12
2024-03-12T23:19:30.007Z,12.15
2024-03-12T23:21:56.532Z,12.17
2024-03-12T23:24:24.005Z,12.21
2024-03-12T23:26:55.822Z,12.24
2024-03-12T23:29:22.367Z,12.25
2024-03-12T23:31:51.567Z,12.28
2024-03-12T23:34:18.137Z,12.28
2024-03-12T23:36:45.632Z,12.28
2024-03-12T23:39:12.258Z,12.29
2024-03-12T23:41:38.783Z,12.31
2024-03-12T23:44:05.505Z,12.37
2024-03-12T23:46:32.031Z,12.39
2024-03-12T23:49:00.466Z,12.36
2024-03-12T23:51:27.078Z,12.34
2024-03-12T23:53:53.544Z,12.32
2024-03-12T23:56:20.055Z,12.29
2024-03-12T23:58:46.564Z,12.33
